Latest Weather Observations for Tindal

IDD60801

Issued at 4:05 pm CST Thursday 17 April 2014 (issued every 30 minutes, with the page automatically refreshed every 10 minutes)

About weather observations | Map of weather stations | Latest weather observations for NT | Other Formats
Station Details ID: 014932 Name: TINDAL RAAF Lat: -14.52 Lon: 132.38 Height: 133.6 m
Data from the previous 72 hours. | See also: Recent months at Tindal
Date/Time
CST
Temp
°C
App
Temp
°C
Dew
Point
Rel
Hum
%
Delta-T
°C
Wind Press
QNH
hPa
Press
MSL
hPa
Rain
since 9 am
mm
Dir
 
Spd
km/h
Gust
km/h
Spd
kts
Gust
kts
17/04:00pm 34.2 35.2 19.4 41 9.8 E 13 20 7 11 1009.2 - 0.0
17/03:30pm 35.0 35.4 19.8 41 10.2 ENE 17 22 9 12 1009.3 - 0.0
17/03:00pm 34.4 34.5 19.2 40 10.1 SE 17 22 9 12 1009.6 1008.7 0.0
17/02:30pm 33.9 33.4 19.2 42 9.7 ESE 20 30 11 16 1010.1 - 0.0
17/02:00pm 32.9 32.4 19.0 43 9.1 ESE 20 30 11 16 1010.5 - 0.0
17/01:30pm 33.0 31.6 18.7 42 9.4 E 24 32 13 17 1011.0 - 0.0
17/01:00pm 32.7 31.4 18.1 42 9.5 ESE 22 35 12 19 1011.2 - 0.0
17/12:30pm 32.3 30.8 18.5 44 9.0 E 24 32 13 17 1011.6 - 0.0
17/12:00pm 33.8 32.2 18.3 39 10.1 ESE 24 33 13 18 1011.9 1011.0 0.0
17/11:30am 31.9 30.8 17.8 43 9.1 SE 20 28 11 15 1012.2 - 0.0
17/11:00am 32.6 31.1 16.8 38 10.1 SE 20 30 11 16 1012.6 - 0.0
17/10:30am 31.6 32.8 18.2 44 8.7 E 9 19 5 10 1012.8 - 0.0
17/10:00am 30.0 31.1 18.1 49 7.7 ESE 9 11 5 6 1012.8 - 0.0
17/09:30am 29.5 31.1 19.2 54 6.7 NNE 9 15 5 8 1012.7 - 0.0
17/09:00am 28.1 30.1 19.1 58 5.8 ESE 7 11 4 6 1012.7 1011.8 0.0
17/08:30am 25.2 25.9 17.9 64 4.6 S 11 15 6 8 1012.6 - 0.0
17/08:00am 22.9 24.1 17.4 71 3.4 SSE 7 9 4 5 1012.4 - 0.0
17/07:30am 21.6 22.7 17.2 76 2.7 SSE 7 9 4 5 1012.3 - 0.0
17/07:00am 20.9 22.0 16.7 77 2.6 SE 6 6 3 3 1012.0 - 0.0
17/06:30am 21.1 22.2 16.5 75 2.8 SE 6 7 3 4 1011.6 - 0.0
17/06:00am 21.3 22.5 16.0 72 3.2 ESE 4 7 2 4 1011.4 1010.5 0.0
17/05:30am 20.8 21.5 16.0 74 2.9 SE 7 9 4 5 1011.2 - 0.0
17/05:00am 21.2 21.9 16.0 72 3.1 ESE 7 9 4 5 1010.9 - 0.0
17/04:30am 21.3 21.5 15.8 71 3.3 SSE 9 11 5 6 1010.8 - 0.0
17/04:00am 21.6 22.2 15.9 70 3.4 SSE 7 9 4 5 1010.7 - 0.0
17/03:30am 22.1 22.8 15.5 66 4.0 ESE 6 7 3 4 1010.8 - 0.0
17/03:00am 22.4 21.7 15.5 65 4.2 SE 13 17 7 9 1010.8 1009.9 0.0
17/02:30am 21.7 21.2 15.8 69 3.6 SE 13 15 7 8 1010.9 - 0.0
17/02:00am 22.5 22.6 15.6 65 4.2 SE 9 11 5 6 1011.1 - 0.0
17/01:30am 22.8 22.6 15.6 64 4.3 SE 11 13 6 7 1011.3 - 0.0
17/01:00am 23.5 23.1 15.3 60 4.9 SE 11 13 6 7 1011.5 - 0.0
17/12:30am 24.3 23.6 15.5 58 5.3 SE 13 15 7 8 1011.7 - 0.0
17/12:00am 23.3 23.2 16.1 64 4.4 SE 11 13 6 7 1011.7 1010.8 0.0
 
Date/Time
CST
Temp
°C
App
Temp
°C
Dew
Point
Rel
Hum
%
Delta-T
°C
Wind Press
QNH
hPa
Press
MSL
hPa
Rain
since 9 am
mm
Dir
 
Spd
km/h
Gust
km/h
Spd
kts
Gust
kts
16/11:30pm 23.5 23.5 16.3 64 4.4 SE 11 13 6 7 1011.5 - 0.0
16/11:00pm 23.7 24.3 16.7 65 4.3 SE 9 11 5 6 1011.4 - 0.0
16/10:30pm 23.8 24.0 16.8 65 4.3 SE 11 13 6 7 1011.3 - 0.0
16/10:00pm 23.8 24.6 17.3 67 4.0 SE 9 11 5 6 1011.4 - 0.0
16/09:30pm 24.2 25.6 17.7 67 4.1 SE 7 9 4 5 1011.2 - 0.0
16/09:00pm 24.6 26.0 17.8 66 4.3 SE 7 9 4 5 1010.9 1010.0 0.0
16/08:30pm 25.2 26.6 17.9 64 4.6 SE 7 7 4 4 1010.5 - 0.0
16/08:00pm 25.9 27.5 17.8 61 5.1 SE 6 7 3 4 1010.1 - 0.0
16/07:30pm 27.1 28.2 17.0 54 6.3 SSE 7 9 4 5 1009.9 - 0.0
16/07:00pm 27.9 28.9 17.7 53 6.5 S 9 9 5 5 1009.5 - 0.0
16/06:30pm 30.6 31.3 16.2 41 9.0 SSE 7 9 4 5 1009.4 - 0.0
16/06:00pm 32.1 31.9 14.7 35 10.7 SE 9 13 5 7 1009.1 1008.2 0.0
16/05:30pm 34.0 31.9 13.5 29 12.5 ESE 17 22 9 12 1008.8 - 0.0
16/05:00pm 34.9 33.6 13.7 28 13.0 SE 13 17 7 9 1008.6 - 0.0
16/04:30pm 34.3 32.4 14.2 29 12.4 ESE 17 24 9 13 1008.6 - 0.0
16/04:00pm 35.1 34.4 14.4 29 12.8 ESE 11 20 6 11 1008.5 - 0.0
16/03:30pm 35.2 33.4 13.4 27 13.3 E 15 20 8 11 1008.5 - 0.0
16/03:00pm 35.6 34.5 14.3 28 13.2 SE 13 24 7 13 1008.8 1007.9 0.0
16/02:30pm 34.1 32.2 14.1 30 12.3 SSE 17 24 9 13 1009.0 - 0.0
16/02:00pm 34.9 34.0 13.7 28 13.0 ESE 11 15 6 8 1009.2 - 0.0
16/01:30pm 34.9 32.1 14.2 28 12.8 SSE 22 33 12 18 1009.7 - 0.0
16/01:00pm 34.9 33.9 14.7 29 12.6 SE 13 20 7 11 1010.3 - 0.0
16/12:30pm 34.3 33.5 15.2 31 12.0 SE 13 22 7 12 1010.9 - 0.0
16/12:00pm 33.7 31.6 14.7 32 11.8 SSE 19 26 10 14 1011.4 1010.5 0.0
16/11:30am 33.4 31.8 14.9 32 11.5 SE 17 24 9 13 1011.9 - 0.0
16/11:00am 32.0 29.3 14.6 34 10.7 ESE 22 30 12 16 1012.4 - 0.0
16/10:30am 31.6 29.2 14.3 35 10.6 ESE 20 26 11 14 1012.6 - 0.0
16/10:00am 30.5 28.0 14.2 37 9.9 SE 20 26 11 14 1012.8 - 0.0
16/09:30am 28.9 25.3 13.2 38 9.3 ESE 24 32 13 17 1012.9 - 0.0
16/09:00am 27.7 25.2 14.0 43 8.2 SE 20 28 11 15 1012.8 1011.9 0.0
16/08:30am 25.3 24.5 15.0 53 6.2 SE 13 19 7 10 1012.6 - 0.0
16/08:00am 23.3 23.1 14.6 58 5.2 SE 9 15 5 8 1012.5 - 0.0
16/07:30am 20.5 20.9 15.3 72 3.1 SSE 7 9 4 5 1012.4 - 0.0
16/07:00am 19.3 19.8 15.0 76 2.5 SSE 6 7 3 4 1012.2 - 0.0
16/06:30am 20.2 20.2 14.3 69 3.4 SE 7 11 4 6 1011.9 - 0.0
16/06:00am 20.7 20.5 14.6 68 3.6 ESE 9 13 5 7 1011.6 1010.7 0.0
16/05:30am 20.4 20.1 14.5 69 3.5 ESE 9 13 5 7 1011.3 - 0.0
16/05:00am 20.0 20.2 14.8 72 3.1 SSE 7 9 4 5 1011.0 - 0.0
16/04:30am 20.4 20.2 14.7 70 3.4 SE 9 9 5 5 1011.0 - 0.0
16/04:00am 20.9 21.9 14.3 66 3.9 E 2 6 1 3 1011.0 - 0.0
16/03:30am 20.9 21.3 14.8 68 3.6 E 6 7 3 4 1011.0 - 0.0
16/03:00am 21.2 22.4 14.8 67 3.8 ESE 2 6 1 3 1011.1 1010.2 0.0
16/02:30am 21.3 21.6 14.9 67 3.8 SE 7 9 4 5 1011.2 - 0.0
16/02:00am 21.1 21.0 15.0 68 3.6 SE 9 9 5 5 1011.5 - 0.0
16/01:30am 21.1 20.7 15.2 69 3.5 SE 11 13 6 7 1011.6 - 0.0
16/01:00am 20.7 20.4 15.5 72 3.1 SE 11 13 6 7 1011.9 - 0.0
16/12:30am 21.1 21.2 15.6 71 3.3 SE 9 9 5 5 1012.0 - 0.0
16/12:00am 21.1 21.2 15.6 71 3.3 SE 9 11 5 6 1012.1 1011.2 0.0
 
Date/Time
CST
Temp
°C
App
Temp
°C
Dew
Point
Rel
Hum
%
Delta-T
°C
Wind Press
QNH
hPa
Press
MSL
hPa
Rain
since 9 am
mm
Dir
 
Spd
km/h
Gust
km/h
Spd
kts
Gust
kts
15/11:30pm 21.7 21.8 15.5 68 3.7 SE 9 9 5 5 1012.1 - 0.0
15/11:00pm 22.1 22.7 15.7 67 3.9 SE 7 9 4 5 1012.1 - 0.0
15/10:30pm 22.3 22.4 15.6 66 4.0 SE 9 9 5 5 1012.1 - 0.0
15/10:00pm 22.6 22.9 15.9 66 4.1 SE 9 11 5 6 1012.1 - 0.0
15/09:30pm 23.1 23.7 15.7 63 4.5 SE 7 9 4 5 1012.1 - 0.0
15/09:00pm 24.2 24.6 15.4 58 5.3 SE 7 9 4 5 1012.1 1011.2 0.0
15/08:30pm 25.7 25.9 14.8 51 6.6 SSE 7 9 4 5 1011.7 - 0.0
15/08:00pm 25.2 25.2 15.2 54 6.1 SSE 9 11 5 6 1011.2 - 0.0
15/07:30pm 26.4 26.4 15.1 49 6.9 SSE 9 11 5 6 1010.6 - 0.0
15/07:00pm 27.3 26.7 14.7 46 7.6 SSE 11 11 6 6 1010.1 - 0.0
15/06:30pm 29.4 28.7 13.2 37 9.7 SSE 9 11 5 6 1009.8 - 0.0
15/06:00pm 32.2 30.5 12.4 30 11.8 S 13 15 7 8 1009.6 1008.7 0.0
15/05:30pm 33.1 30.8 11.6 27 12.7 SSE 15 20 8 11 1009.4 - 0.0
15/05:00pm 33.9 32.2 12.3 27 12.9 SSW 13 17 7 9 1009.3 - 0.0
15/04:30pm 33.9 31.6 11.7 26 13.2 SE 15 24 8 13 1009.2 - 0.0
15/04:00pm 34.3 33.0 12.6 27 13.1 SSE 11 20 6 11 1009.1 - 0.0
15/03:30pm 34.6 33.4 12.9 27 13.2 SSW 11 22 6 12 1009.0 - 0.0
15/03:00pm 34.2 32.0 12.0 26 13.3 SSW 15 20 8 11 1009.1 1008.2 0.0
15/02:30pm 33.8 31.3 12.2 27 12.9 SSE 17 28 9 15 1009.6 - 0.0
15/02:00pm 33.7 31.3 12.7 28 12.6 S 17 28 9 15 1010.1 - 0.0
15/01:30pm 33.5 31.4 12.5 28 12.6 SE 15 24 8 13 1010.6 - 0.0
15/01:00pm 33.4 30.5 12.4 28 12.6 SE 19 30 10 16 1011.2 - 0.0
15/12:30pm 33.4 30.4 12.4 28 12.6 S 20 33 11 18 1011.8 - 0.0
15/12:00pm 33.0 30.4 13.1 30 12.0 SE 19 28 10 15 1012.2 1011.3 0.0
15/11:30am 32.6 29.9 12.8 30 11.9 SE 19 28 10 15 1012.7 - 0.0
15/11:00am 31.8 28.6 13.1 32 11.2 SE 22 32 12 17 1013.2 - 0.0
15/10:30am 30.7 27.1 13.0 33 10.6 SSE 24 30 13 16 1013.4 - 0.0
15/10:00am 30.2 28.1 13.5 36 10.0 ESE 17 22 9 12 1013.7 - 0.0
15/09:30am 28.7 26.8 13.0 38 9.3 SE 15 20 8 11 1013.8 - 0.0
15/09:00am 26.4 24.9 14.2 47 7.3 SE 15 20 8 11 1013.6 1012.8 0.0
15/08:30am 25.0 24.4 14.5 52 6.3 ESE 11 15 6 8 1013.4 - 0.0
15/08:00am 23.4 23.3 14.9 59 5.1 SE 9 11 5 6 1013.2 - 0.0
15/07:30am 20.5 21.3 16.3 77 2.5 SE 7 7 4 4 1012.8 - 0.0
15/07:00am 18.5 18.8 15.9 85 1.5 SSE 9 11 5 6 1012.3 - 0.0
15/06:30am 19.9 21.8 15.7 77 2.5 CALM 0 0 0 0 1012.0 - 0.0
15/06:00am 20.4 21.4 15.4 73 3.0 E 4 6 2 3 1011.7 1010.8 0.0
15/05:30am 20.3 20.6 16.1 77 2.5 ENE 9 11 5 6 1011.6 - 0.0
15/05:00am 20.5 21.4 16.5 78 2.4 S 7 9 4 5 1011.2 - 0.0
15/04:30am 21.5 22.4 16.7 74 2.9 S 7 9 4 5 1011.1 - 0.0
15/04:00am 22.1 22.9 17.2 74 3.0 ESE 9 11 5 6 1011.1 - 0.0
15/03:30am 22.8 25.3 17.3 71 3.4 CALM 0 6 0 3 1011.1 - 0.0
15/03:00am 22.2 22.9 17.1 73 3.1 SE 9 11 5 6 1011.1 1010.2 0.0
15/02:30am 23.1 24.0 17.6 71 3.4 S 9 13 5 7 1011.1 - 0.0
15/02:00am 23.2 24.1 17.6 71 3.5 S 9 11 5 6 1011.0 - 0.0
15/01:30am 23.7 25.2 17.7 69 3.8 S 6 7 3 4 1011.1 - 0.0
15/01:00am 24.0 25.8 18.2 70 3.7 SSE 6 7 3 4 1011.3 - 0.0
15/12:30am 24.1 27.0 18.3 70 3.7 CALM 0 0 0 0 1011.6 - 0.0
15/12:00am 23.6 25.4 17.3 67 3.9 ESE 4 9 2 5 1011.6 1010.7 0.0
 
Date/Time
CST
Temp
°C
App
Temp
°C
Dew
Point
Rel
Hum
%
Delta-T
°C
Wind Press
QNH
hPa
Press
MSL
hPa
Rain
since 9 am
mm
Dir
 
Spd
km/h
Gust
km/h
Spd
kts
Gust
kts
14/11:30pm 23.9 25.4 17.6 68 3.9 SSE 6 6 3 3 1011.8 - 0.0
14/11:00pm 25.0 26.3 17.0 61 5.0 ESE 6 7 3 4 1011.8 - 0.0
14/10:30pm 25.9 26.8 16.5 56 5.8 ENE 7 9 4 5 1011.9 - 0.0
14/10:00pm 24.6 25.9 17.1 63 4.7 ESE 6 7 3 4 1011.9 - 0.0
14/09:30pm 25.0 25.7 17.0 61 5.0 SE 9 9 5 5 1011.6 - 0.0
14/09:00pm 25.8 26.4 16.9 58 5.6 SSE 9 11 5 6 1011.5 1010.6 0.0
14/08:30pm 26.1 26.7 16.9 57 5.7 SE 9 9 5 5 1011.1 - 0.0
14/08:00pm 26.8 27.0 16.7 54 6.3 SE 11 13 6 7 1010.7 - 0.0
14/07:30pm 27.4 27.6 16.7 52 6.7 SE 11 15 6 8 1010.2 - 0.0
14/07:00pm 28.5 28.7 16.7 48 7.4 SSE 11 11 6 6 1009.7 - 0.0
14/06:30pm 30.6 30.3 15.5 40 9.4 SE 11 13 6 7 1009.3 - 0.0
14/06:00pm 32.7 32.3 15.2 34 10.9 SE 11 15 6 8 1008.8 1007.9 0.0
14/05:30pm 33.8 33.6 14.8 32 11.8 SSE 9 13 5 7 1008.5 - 0.0
14/05:00pm 34.1 32.9 14.1 30 12.3 S 13 17 7 9 1008.2 - 0.0
14/04:30pm 34.5 33.7 13.9 29 12.7 S 11 20 6 11 1007.9 - 0.0

Other Formats:

Comma delimited format used in spreadsheet applications
http://www.bom.gov.au/fwo/IDD60801/IDD60801.94131.axf

JavaScript Object Notation format (JSON) in row-major order
http://www.bom.gov.au/fwo/IDD60801/IDD60801.94131.json